createdAt,value
2022-08-06T07:44:57.372Z,47.41
2022-08-06T07:45:11.249Z,47.10
2022-08-06T07:45:21.229Z,46.93
2022-08-06T07:45:38.066Z,46.75
2022-08-06T07:45:54.803Z,46.87
2022-08-06T07:45:56.226Z,46.86
2022-08-06T07:46:05.647Z,46.67
2022-08-06T07:46:16.048Z,46.71
2022-08-06T07:46:26.729Z,46.73
2022-08-06T07:46:38.230Z,46.64
2022-08-06T07:46:52.070Z,46.57
2022-08-06T07:47:01.527Z,46.61
2022-08-06T07:47:23.972Z,46.78
2022-08-06T07:47:37.052Z,46.77
2022-08-06T07:47:54.380Z,46.74
2022-08-06T07:47:54.760Z,46.73
2022-08-06T07:48:01.631Z,46.71
2022-08-06T07:48:11.845Z,46.61
2022-08-06T07:48:22.831Z,46.63
2022-08-06T07:48:33.836Z,46.64
2022-08-06T07:48:52.399Z,46.55
2022-08-06T07:48:57.243Z,46.63
2022-08-06T07:49:08.560Z,46.53
2022-08-06T07:49:20.432Z,46.71
2022-08-06T07:50:00.025Z,46.57
2022-08-06T07:50:00.034Z,46.64
2022-08-06T07:50:01.107Z,46.68
2022-08-06T07:50:07.679Z,46.64
2022-08-06T07:50:23.391Z,46.62
2022-08-06T07:50:30.981Z,46.60
2022-08-06T07:50:42.251Z,46.52
2022-08-06T07:50:53.787Z,46.47
2022-08-06T07:51:04.768Z,46.42
2022-08-06T07:51:14.090Z,46.50
2022-08-06T07:51:33.913Z,46.46
2022-08-06T07:51:37.511Z,46.56
2022-08-06T07:51:49.447Z,46.58
2022-08-06T07:52:01.571Z,46.40
2022-08-06T07:52:11.662Z,46.36
2022-08-06T07:52:26.714Z,46.59
2022-08-06T07:52:34.084Z,46.53
2022-08-06T07:52:44.860Z,46.43
2022-08-06T07:52:55.178Z,46.46
2022-08-06T07:53:07.254Z,46.42
2022-08-06T07:53:18.486Z,46.43
2022-08-06T07:53:41.134Z,46.37
2022-08-06T07:53:56.153Z,46.46
2022-08-06T07:53:57.561Z,46.53
2022-08-06T07:54:05.860Z,46.50
2022-08-06T07:54:16.804Z,46.48
2022-08-06T07:54:34.182Z,46.51
2022-08-06T07:54:40.688Z,46.51
2022-08-06T07:54:51.173Z,46.39
2022-08-06T07:55:03.137Z,46.37
2022-08-06T07:55:14.724Z,46.31
2022-08-06T07:55:36.904Z,46.34
2022-08-06T07:55:40.918Z,46.53
2022-08-06T07:55:50.272Z,46.43
2022-08-06T07:56:01.744Z,46.47
2022-08-06T07:56:13.245Z,46.36
2022-08-06T07:56:23.902Z,46.31
2022-08-06T07:56:35.187Z,46.38
2022-08-06T07:56:59.802Z,46.42
2022-08-06T07:57:01.803Z,46.31
2022-08-06T07:57:14.860Z,46.39
2022-08-06T07:57:25.680Z,46.53
2022-08-06T07:57:55.744Z,46.44
2022-08-06T07:57:55.923Z,46.42
2022-08-06T07:57:58.899Z,46.44
2022-08-06T07:58:08.672Z,46.36
2022-08-06T07:58:18.739Z,46.32
2022-08-06T07:58:30.607Z,46.49
2022-08-06T07:58:45.758Z,46.29
2022-08-06T07:58:52.294Z,46.45
2022-08-06T07:59:03.531Z,46.36
2022-08-06T07:59:14.978Z,46.42
2022-08-06T07:59:24.162Z,46.31
2022-08-06T07:59:35.649Z,46.27
2022-08-06T07:59:46.880Z,46.26
2022-08-06T07:59:58.374Z,46.28
2022-08-06T08:00:13.906Z,46.23
2022-08-06T08:00:21.553Z,46.44
2022-08-06T08:00:31.838Z,46.30
2022-08-06T08:00:49.454Z,46.27
2022-08-06T08:00:55.403Z,46.36
2022-08-06T08:01:07.180Z,46.31
2022-08-06T08:01:19.521Z,46.32
2022-08-06T08:01:36.633Z,46.33
2022-08-06T08:01:40.804Z,46.43
2022-08-06T08:01:52.731Z,46.41
2022-08-06T08:02:04.412Z,46.31
2022-08-06T08:02:16.122Z,46.27
2022-08-06T08:02:29.743Z,46.34
2022-08-06T08:02:39.200Z,46.25
2022-08-06T08:02:50.815Z,46.23
2022-08-06T08:03:02.068Z,46.22
2022-08-06T08:03:43.586Z,46.20
2022-08-06T08:03:56.245Z,46.33
2022-08-06T08:03:56.717Z,46.29
2022-08-06T08:03:56.803Z,46.33
2022-08-06T08:04:01.287Z,46.35
2022-08-06T08:04:34.319Z,46.39
2022-08-06T08:04:35.788Z,46.25
2022-08-06T08:04:51.630Z,46.35
2022-08-06T08:04:52.518Z,46.34
2022-08-06T08:05:00.499Z,46.36
2022-08-06T08:05:11.043Z,46.23
2022-08-06T08:05:39.061Z,46.20
2022-08-06T08:05:39.289Z,46.28
2022-08-06T08:06:00.378Z,46.33
2022-08-06T08:06:00.613Z,46.32
2022-08-06T08:06:10.326Z,46.26
2022-08-06T08:06:22.067Z,46.19
2022-08-06T08:06:36.202Z,46.19
2022-08-06T08:06:45.283Z,46.37
2022-08-06T08:06:57.119Z,46.24
2022-08-06T08:07:12.964Z,46.16
2022-08-06T08:07:20.438Z,46.28
2022-08-06T08:07:37.562Z,46.19
2022-08-06T08:07:53.408Z,46.36
2022-08-06T08:07:57.558Z,46.32
2022-08-06T08:08:09.393Z,46.21
2022-08-06T08:08:18.618Z,46.26
2022-08-06T08:08:30.602Z,46.35
2022-08-06T08:08:41.833Z,46.22
2022-08-06T08:08:53.641Z,46.18
2022-08-06T08:09:04.877Z,46.14
2022-08-06T08:09:29.073Z,46.13
2022-08-06T08:09:29.631Z,46.26
2022-08-06T08:10:01.617Z,46.26
2022-08-06T08:10:02.935Z,46.24
2022-08-06T08:10:04.342Z,46.27
2022-08-06T08:10:15.671Z,46.17
2022-08-06T08:10:28.691Z,46.11
2022-08-06T08:10:38.532Z,46.08
2022-08-06T08:10:50.076Z,46.27
2022-08-06T08:11:01.306Z,46.17
2022-08-06T08:11:12.509Z,46.20
2022-08-06T08:11:37.577Z,46.10
2022-08-06T08:11:38.498Z,46.17
2022-08-06T08:12:16.962Z,46.22
2022-08-06T08:12:25.842Z,46.25
2022-08-06T08:12:26.104Z,46.24
2022-08-06T08:12:29.627Z,46.21
2022-08-06T08:12:37.639Z,46.24
2022-08-06T08:12:52.255Z,46.14
2022-08-06T08:13:03.416Z,46.28
2022-08-06T08:13:11.962Z,46.25
2022-08-06T08:13:40.669Z,46.16
2022-08-06T08:13:41.698Z,46.28
2022-08-06T08:13:46.504Z,46.24
2022-08-06T08:13:56.915Z,46.17
2022-08-06T08:14:07.423Z,46.04
2022-08-06T08:14:19.377Z,46.06
2022-08-06T08:14:30.606Z,46.12
2022-08-06T08:14:42.386Z,46.04
2022-08-06T08:14:54.319Z,46.18
2022-08-06T08:15:06.529Z,46.08
2022-08-06T08:15:18.580Z,46.24
2022-08-06T08:15:28.991Z,46.20
2022-08-06T08:15:43.474Z,46.09
2022-08-06T08:15:50.695Z,46.20
2022-08-06T08:16:02.847Z,46.04
2022-08-06T08:16:20.312Z,46.03
2022-08-06T08:16:28.617Z,46.20
2022-08-06T08:16:38.468Z,46.19
2022-08-06T08:16:49.462Z,46.11
2022-08-06T08:17:00.976Z,46.04
2022-08-06T08:17:12.214Z,45.98
2022-08-06T08:17:34.617Z,46.09
2022-08-06T08:17:35.899Z,46.21
2022-08-06T08:17:57.607Z,46.10
2022-08-06T08:17:59.069Z,46.22
2022-08-06T08:18:10.300Z,46.06
2022-08-06T08:18:21.808Z,46.00
2022-08-06T08:18:33.705Z,46.04
2022-08-06T08:18:45.402Z,46.00
2022-08-06T08:18:56.704Z,45.98
2022-08-06T08:19:08.956Z,45.98
2022-08-06T08:19:18.595Z,45.94
2022-08-06T08:19:34.821Z,46.12
2022-08-06T08:19:41.790Z,46.13
2022-08-06T08:19:53.204Z,46.05
2022-08-06T08:20:03.342Z,46.04
2022-08-06T08:20:16.497Z,45.95
2022-08-06T08:20:27.791Z,46.05
2022-08-06T08:20:38.724Z,46.11
2022-08-06T08:20:53.065Z,46.01
2022-08-06T08:21:00.969Z,46.15
2022-08-06T08:21:11.243Z,46.07
2022-08-06T08:21:23.362Z,46.00
2022-08-06T08:21:35.235Z,45.98
2022-08-06T08:21:46.478Z,45.96
2022-08-06T08:21:57.997Z,45.92
2022-08-06T08:22:09.237Z,45.94
2022-08-06T08:22:24.111Z,45.93
2022-08-06T08:22:31.437Z,45.99
2022-08-06T08:22:48.617Z,45.95
2022-08-06T08:22:54.578Z,46.14
2022-08-06T08:23:06.085Z,45.99
2022-08-06T08:23:25.749Z,46.02
2022-08-06T08:23:36.343Z,46.12
2022-08-06T08:23:45.718Z,46.08
2022-08-06T08:23:55.713Z,46.09
2022-08-06T08:24:04.884Z,46.03
2022-08-06T08:24:16.397Z,45.94
2022-08-06T08:24:27.634Z,45.94
2022-08-06T08:24:39.198Z,45.93
2022-08-06T08:24:54.091Z,45.92
2022-08-06T08:25:01.726Z,46.08
2022-08-06T08:25:13.197Z,45.97
2022-08-06T08:25:40.173Z,46.12
2022-08-06T08:25:40.695Z,46.03
2022-08-06T08:25:48.052Z,46.08
2022-08-06T08:25:59.297Z,45.99
2022-08-06T08:26:10.781Z,45.91
2022-08-06T08:26:21.788Z,45.84
2022-08-06T08:27:03.019Z,46.06
2022-08-06T08:27:04.445Z,46.08
2022-08-06T08:27:11.838Z,46.04
2022-08-06T08:27:12.325Z,46.09
2022-08-06T08:27:23.431Z,46.04
2022-08-06T08:27:32.266Z,46.06
2022-08-06T08:27:43.954Z,46.05
2022-08-06T08:27:55.284Z,45.98
2022-08-06T08:28:11.496Z,45.90
2022-08-06T08:28:19.213Z,46.01
2022-08-06T08:28:29.992Z,45.91
2022-08-06T08:28:41.478Z,45.86
2022-08-06T08:28:52.570Z,45.87
2022-08-06T08:29:04.042Z,45.85
2022-08-06T08:29:17.520Z,45.86
2022-08-06T08:29:31.429Z,46.06
2022-08-06T08:29:39.157Z,46.05
2022-08-06T08:29:55.139Z,45.94
2022-08-06T08:30:03.712Z,46.06
2022-08-06T08:30:15.369Z,45.91
2022-08-06T08:30:23.500Z,46.02
2022-08-06T08:30:35.440Z,46.02
2022-08-06T08:30:48.217Z,45.93
2022-08-06T08:30:56.756Z,46.00
2022-08-06T08:31:15.786Z,45.91
2022-08-06T08:31:25.614Z,46.05
2022-08-06T08:31:31.855Z,46.03
2022-08-06T08:31:42.747Z,45.89
2022-08-06T08:31:59.451Z,46.07
2022-08-06T08:32:16.888Z,46.06
2022-08-06T08:32:19.475Z,46.02
2022-08-06T08:32:28.757Z,45.90
2022-08-06T08:32:40.423Z,45.88
2022-08-06T08:32:52.372Z,45.97
2022-08-06T08:33:05.225Z,45.87
2022-08-06T08:33:18.109Z,46.05
2022-08-06T08:33:27.586Z,45.92
2022-08-06T08:33:39.624Z,46.05
2022-08-06T08:33:50.812Z,45.91
2022-08-06T08:34:02.605Z,45.85
2022-08-06T08:34:14.366Z,45.85
2022-08-06T08:34:27.259Z,45.84
2022-08-06T08:34:36.483Z,45.84
2022-08-06T08:34:52.340Z,45.89
2022-08-06T08:34:59.012Z,46.03
2022-08-06T08:35:09.624Z,45.86
2022-08-06T08:35:21.130Z,45.83
2022-08-06T08:35:31.568Z,45.77
2022-08-06T08:35:50.604Z,46.01
2022-08-06T08:36:01.236Z,45.99
2022-08-06T08:36:07.348Z,45.97
2022-08-06T08:36:18.482Z,45.97
2022-08-06T08:36:30.682Z,45.87
2022-08-06T08:36:39.987Z,45.88
2022-08-06T08:36:51.491Z,45.83
2022-08-06T08:37:02.737Z,45.82
2022-08-06T08:37:18.130Z,45.98
2022-08-06T08:37:25.451Z,45.94
2022-08-06T08:37:37.006Z,45.87
2022-08-06T08:37:48.615Z,46.01
2022-08-06T08:37:59.768Z,45.87
2022-08-06T08:38:11.533Z,45.84
2022-08-06T08:38:26.928Z,45.83
2022-08-06T08:38:34.957Z,45.99
2022-08-06T08:38:46.222Z,45.86
2022-08-06T08:38:58.227Z,46.00
2022-08-06T08:39:09.523Z,45.86
2022-08-06T08:39:24.406Z,45.82
2022-08-06T08:39:33.623Z,45.86
2022-08-06T08:39:42.943Z,45.82
2022-08-06T08:39:55.914Z,45.78
2022-08-06T08:40:05.651Z,45.74
2022-08-06T08:40:17.695Z,45.79
2022-08-06T08:40:28.920Z,45.77
2022-08-06T08:40:41.589Z,45.77
2022-08-06T08:40:50.693Z,45.70
2022-08-06T08:41:02.294Z,45.73
2022-08-06T08:41:13.984Z,45.77
2022-08-06T08:41:48.335Z,45.74
2022-08-06T08:41:48.760Z,45.86
2022-08-06T08:41:50.396Z,45.89
2022-08-06T08:41:59.567Z,45.76
2022-08-06T08:42:11.068Z,45.74
2022-08-06T08:42:31.852Z,45.86
2022-08-06T08:42:36.338Z,45.91
2022-08-06T08:42:45.710Z,45.77
2022-08-06T08:42:58.106Z,45.79
2022-08-06T08:43:09.931Z,45.71
2022-08-06T08:43:21.883Z,45.86
2022-08-06T08:43:59.362Z,45.92
2022-08-06T08:44:01.017Z,45.89
2022-08-06T08:44:01.119Z,45.87
2022-08-06T08:44:09.642Z,45.90
2022-08-06T08:44:26.982Z,45.81
2022-08-06T08:44:32.945Z,45.97
2022-08-06T08:44:44.178Z,45.82
2022-08-06T08:44:55.821Z,45.88
2022-08-06T08:45:12.699Z,45.75
2022-08-06T08:45:19.251Z,45.88
2022-08-06T08:45:33.624Z,45.78
2022-08-06T08:45:41.005Z,45.90
2022-08-06T08:45:51.288Z,45.85
2022-08-06T08:46:02.574Z,45.85
2022-08-06T08:46:13.820Z,45.80
2022-08-06T08:46:31.335Z,45.73
2022-08-06T08:46:38.130Z,45.86
2022-08-06T08:46:57.409Z,45.86
2022-08-06T08:47:00.972Z,45.92
2022-08-06T08:47:12.864Z,45.79
2022-08-06T08:47:24.631Z,45.76
2022-08-06T08:47:51.190Z,45.85
2022-08-06T08:47:53.486Z,45.86
2022-08-06T08:48:00.135Z,45.89
2022-08-06T08:48:10.517Z,45.86
2022-08-06T08:48:21.780Z,45.78
2022-08-06T08:48:33.733Z,45.72
2022-08-06T08:48:44.469Z,45.68
2022-08-06T08:48:55.943Z,45.74
2022-08-06T08:49:08.200Z,45.69
2022-08-06T08:49:19.436Z,45.69
2022-08-06T08:49:31.386Z,45.73
2022-08-06T08:49:47.209Z,45.69
2022-08-06T08:49:54.317Z,45.91
2022-08-06T08:50:05.552Z,45.78
2022-08-06T08:50:18.546Z,45.81
2022-08-06T08:50:27.755Z,45.84
2022-08-06T08:50:39.329Z,45.71
2022-08-06T08:50:50.555Z,45.72
2022-08-06T08:51:00.860Z,45.74
2022-08-06T08:51:12.347Z,45.70
2022-08-06T08:51:23.590Z,45.70
2022-08-06T08:51:36.686Z,45.67
2022-08-06T08:51:47.018Z,45.81
2022-08-06T08:51:58.796Z,45.74
2022-08-06T08:52:11.687Z,45.71
2022-08-06T08:52:21.342Z,45.64
2022-08-06T08:52:33.173Z,45.70
2022-08-06T08:52:44.381Z,45.70
2022-08-06T08:52:56.279Z,45.69
2022-08-06T08:53:07.524Z,45.70
2022-08-06T08:53:44.883Z,45.77
2022-08-06T08:53:45.643Z,45.87
2022-08-06T08:53:45.866Z,45.90
2022-08-06T08:53:53.555Z,45.80
2022-08-06T08:54:05.394Z,45.84
2022-08-06T08:54:17.464Z,45.77
2022-08-06T08:54:28.746Z,45.83
2022-08-06T08:54:40.218Z,45.71
2022-08-06T08:54:51.454Z,45.71
2022-08-06T08:55:02.960Z,45.67
2022-08-06T08:57:07.246Z,45.85
2022-08-06T08:57:07.338Z,45.80
2022-08-06T08:57:08.111Z,45.85
2022-08-06T08:57:08.355Z,45.82
2022-08-06T08:57:09.342Z,45.85
2022-08-06T08:57:09.344Z,45.85
2022-08-06T08:57:10.099Z,45.88
2022-08-06T08:57:10.263Z,45.83
2022-08-06T08:57:10.698Z,45.84
2022-08-06T08:58:36.060Z,45.86
2022-08-06T08:58:37.045Z,45.85
2022-08-06T08:58:37.944Z,45.87
2022-08-06T08:58:38.228Z,45.84
2022-08-06T08:58:39.622Z,45.88
2022-08-06T08:58:40.331Z,45.85
2022-08-06T08:58:41.435Z,45.84
2022-08-06T08:58:42.751Z,45.86
2022-08-06T08:58:46.804Z,45.86
2022-08-06T08:59:00.852Z,45.87
2022-08-06T08:59:56.325Z,45.87
2022-08-06T08:59:57.309Z,45.87
2022-08-06T08:59:58.320Z,45.87
2022-08-06T08:59:58.827Z,45.86
2022-08-06T08:59:59.616Z,45.85
2022-08-06T09:00:02.571Z,45.84
2022-08-06T09:00:11.706Z,45.77
2022-08-06T09:00:26.776Z,45.73
2022-08-06T09:00:33.854Z,45.85
2022-08-06T09:00:43.888Z,45.72
2022-08-06T09:00:55.816Z,45.88
2022-08-06T09:01:07.236Z,45.75
2022-08-06T09:01:52.536Z,45.83
2022-08-06T09:01:52.605Z,45.80
2022-08-06T09:01:53.699Z,45.70
2022-08-06T09:01:57.375Z,45.82
2022-08-06T09:02:04.627Z,45.77
2022-08-06T09:02:14.855Z,45.66
2022-08-06T09:02:26.698Z,45.67
2022-08-06T09:02:37.934Z,45.69
2022-08-06T09:02:50.872Z,45.69
2022-08-06T09:03:02.494Z,45.61
2022-08-06T09:03:13.725Z,45.68
2022-08-06T09:03:25.225Z,45.63
2022-08-06T09:03:36.588Z,45.65
2022-08-06T09:03:47.537Z,45.79
2022-08-06T09:03:58.527Z,45.76
2022-08-06T09:04:10.507Z,45.69
2022-08-06T09:04:24.676Z,45.68
2022-08-06T09:04:34.016Z,45.74
2022-08-06T09:04:45.479Z,45.66
2022-08-06T09:04:58.357Z,45.71
2022-08-06T09:05:08.046Z,45.77
2022-08-06T09:05:20.019Z,45.77
2022-08-06T09:05:34.615Z,45.66
2022-08-06T09:05:47.513Z,45.68
2022-08-06T09:05:54.719Z,45.80
2022-08-06T09:06:06.460Z,45.70
2022-08-06T09:06:29.229Z,45.64
2022-08-06T09:06:30.905Z,45.73
2022-08-06T09:06:41.954Z,45.68
2022-08-06T09:06:53.785Z,45.78
2022-08-06T09:07:05.266Z,45.68
2022-08-06T09:07:35.182Z,45.68
2022-08-06T09:07:36.615Z,45.83
2022-08-06T09:07:41.458Z,45.80
2022-08-06T09:08:01.420Z,45.72
2022-08-06T09:08:04.801Z,45.82
2022-08-06T09:08:18.988Z,45.72
2022-08-06T09:08:59.508Z,45.83
2022-08-06T09:09:01.301Z,45.81
2022-08-06T09:09:01.407Z,45.78
2022-08-06T09:09:04.937Z,45.77
2022-08-06T09:09:16.219Z,45.67
2022-08-06T09:09:30.231Z,45.75
2022-08-06T09:09:37.702Z,45.86
2022-08-06T09:10:01.331Z,45.80
2022-08-06T09:10:03.702Z,45.81
2022-08-06T09:10:16.110Z,45.69
2022-08-06T09:10:23.618Z,45.78
2022-08-06T09:10:36.396Z,45.74
2022-08-06T09:10:45.087Z,45.72
2022-08-06T09:10:57.017Z,45.77
2022-08-06T09:11:12.289Z,45.64
2022-08-06T09:12:02.892Z,45.82
2022-08-06T09:12:04.321Z,45.79
2022-08-06T09:12:04.902Z,45.79
2022-08-06T09:12:05.506Z,45.79
2022-08-06T09:12:19.626Z,45.77
2022-08-06T09:12:34.201Z,45.79
2022-08-06T09:12:34.416Z,45.77
2022-08-06T09:12:46.002Z,45.79
2022-08-06T09:12:54.606Z,45.76
2022-08-06T09:13:22.477Z,45.69
2022-08-06T09:13:22.740Z,45.85
2022-08-06T09:13:50.706Z,45.82
2022-08-06T09:13:51.767Z,45.80
2022-08-06T09:13:57.359Z,45.78
2022-08-06T09:14:05.446Z,45.79
2022-08-06T09:14:15.778Z,45.75
2022-08-06T09:14:28.270Z,45.67
2022-08-06T09:14:38.943Z,45.82
2022-08-06T09:14:49.283Z,45.71
2022-08-06T09:15:00.572Z,45.68
2022-08-06T09:15:12.041Z,45.64
2022-08-06T09:15:23.576Z,45.64
2022-08-06T09:15:40.733Z,45.70
2022-08-06T09:15:51.439Z,45.83
2022-08-06T09:15:58.633Z,45.78
2022-08-06T09:16:19.153Z,45.66
2022-08-06T09:16:32.179Z,45.81
2022-08-06T09:16:33.782Z,45.81
2022-08-06T09:16:50.304Z,45.67
2022-08-06T09:16:56.465Z,45.80
2022-08-06T09:17:10.600Z,45.62
2022-08-06T09:18:10.914Z,45.79
2022-08-06T09:18:11.637Z,45.77
2022-08-06T09:18:11.977Z,45.78
2022-08-06T09:18:12.383Z,45.77
2022-08-06T09:18:12.479Z,45.75
2022-08-06T09:18:27.210Z,45.78
2022-08-06T09:18:30.579Z,45.77
2022-08-06T09:18:42.034Z,45.66
2022-08-06T09:18:53.933Z,45.64
2022-08-06T09:19:05.168Z,45.59
2022-08-06T09:19:17.109Z,45.79
2022-08-06T09:19:38.103Z,45.71
2022-08-06T09:19:41.625Z,45.81
2022-08-06T09:19:51.211Z,45.66
2022-08-06T09:20:02.688Z,45.60
2022-08-06T09:20:13.941Z,45.58
2022-08-06T09:20:25.898Z,45.73
2022-08-06T09:20:45.725Z,45.61
2022-08-06T09:20:49.959Z,45.73
2022-08-06T09:21:01.930Z,45.59
2022-08-06T09:21:12.945Z,45.66
2022-08-06T09:21:23.594Z,45.57
2022-08-06T09:21:35.098Z,45.58
2022-08-06T09:21:46.337Z,45.57
2022-08-06T09:21:58.235Z,45.75
2022-08-06T09:22:09.822Z,45.65
2022-08-06T09:22:23.348Z,45.59
2022-08-06T09:22:31.728Z,45.62
2022-08-06T09:22:42.956Z,45.58
2022-08-06T09:22:54.448Z,45.54
2022-08-06T09:23:07.750Z,45.55
2022-08-06T09:23:19.613Z,45.64
2022-08-06T09:23:29.319Z,45.67
2022-08-06T09:23:57.586Z,45.76
2022-08-06T09:23:57.888Z,45.73
2022-08-06T09:24:04.867Z,45.68
2022-08-06T09:24:16.658Z,45.56
2022-08-06T09:24:33.727Z,45.56
2022-08-06T09:24:40.300Z,45.76
2022-08-06T09:24:51.598Z,45.64
2022-08-06T09:25:07.390Z,45.57
2022-08-06T09:25:19.695Z,45.68
2022-08-06T09:25:27.773Z,45.67
2022-08-06T09:25:41.047Z,45.58
2022-08-06T09:25:50.154Z,45.75
2022-08-06T09:26:00.920Z,45.61
2022-08-06T09:26:12.476Z,45.57
2022-08-06T09:26:52.462Z,45.73
2022-08-06T09:26:54.234Z,45.71
2022-08-06T09:26:54.583Z,45.56
2022-08-06T09:27:03.154Z,45.70
2022-08-06T09:27:46.899Z,45.71
2022-08-06T09:27:47.594Z,45.69
2022-08-06T09:27:48.790Z,45.69
2022-08-06T09:27:59.293Z,45.70
2022-08-06T09:27:59.508Z,45.60
2022-08-06T09:28:08.744Z,45.64
2022-08-06T09:28:20.354Z,45.57
2022-08-06T09:28:31.516Z,45.56
2022-08-06T09:28:43.142Z,45.55
2022-08-06T09:28:54.380Z,45.54
2022-08-06T09:29:09.304Z,45.54
2022-08-06T09:29:24.092Z,45.65
2022-08-06T09:29:33.424Z,45.66
2022-08-06T09:29:42.319Z,45.66
2022-08-06T09:30:04.245Z,45.70
2022-08-06T09:30:25.569Z,45.68
2022-08-06T09:30:26.896Z,45.71
2022-08-06T09:30:31.095Z,45.70
2022-08-06T09:30:40.266Z,45.55
2022-08-06T09:30:51.762Z,45.54
2022-08-06T09:31:03.005Z,45.55
2022-08-06T09:31:22.456Z,45.52
2022-08-06T09:31:43.860Z,45.65
2022-08-06T09:31:44.468Z,45.69
2022-08-06T09:31:50.375Z,45.71
2022-08-06T09:32:01.507Z,45.67
2022-08-06T09:32:18.255Z,45.58
2022-08-06T09:32:24.284Z,45.70
2022-08-06T09:32:35.268Z,45.60
2022-08-06T09:32:55.188Z,45.54
2022-08-06T09:33:04.229Z,45.65
2022-08-06T09:34:18.975Z,45.69
2022-08-06T09:34:19.024Z,45.67
2022-08-06T09:34:28.758Z,45.69
2022-08-06T09:34:29.054Z,45.67
2022-08-06T09:34:30.102Z,45.69
2022-08-06T09:34:30.104Z,45.70
2022-08-06T09:34:32.832Z,45.69
2022-08-06T09:34:39.007Z,45.69
2022-08-06T09:34:46.667Z,45.68
2022-08-06T09:34:57.574Z,45.66
2022-08-06T09:35:17.054Z,45.60
2022-08-06T09:35:42.997Z,45.74
2022-08-06T09:35:44.994Z,45.70
2022-08-06T09:35:46.159Z,45.69
2022-08-06T09:35:55.504Z,45.59
2022-08-06T09:36:07.004Z,45.55
2022-08-06T09:36:30.370Z,45.55
2022-08-06T09:36:30.993Z,45.71
2022-08-06T09:36:42.517Z,45.53
2022-08-06T09:36:57.001Z,45.59
2022-08-06T09:37:04.790Z,45.66
2022-08-06T09:37:18.068Z,45.53
2022-08-06T09:37:28.346Z,45.63
2022-08-06T09:37:53.376Z,45.68
2022-08-06T09:37:54.160Z,45.69
2022-08-06T09:38:02.985Z,45.68
2022-08-06T09:38:16.318Z,45.56
2022-08-06T09:38:25.893Z,45.63
2022-08-06T09:38:37.392Z,45.53
2022-08-06T09:38:48.638Z,45.53
2022-08-06T09:39:00.309Z,45.51
2022-08-06T09:39:12.593Z,45.46
2022-08-06T09:39:23.898Z,45.49
2022-08-06T09:40:00.331Z,45.71
2022-08-06T09:40:06.343Z,45.66
2022-08-06T09:40:06.370Z,45.67
2022-08-06T09:40:13.543Z,45.67
2022-08-06T09:40:23.056Z,45.57
2022-08-06T09:40:34.985Z,45.49
2022-08-06T09:40:46.232Z,45.51
2022-08-06T09:40:58.304Z,45.51
2022-08-06T09:41:15.722Z,45.52
2022-08-06T09:41:21.440Z,45.69
2022-08-06T09:41:33.215Z,45.58
2022-08-06T09:41:44.704Z,45.51
2022-08-06T09:41:55.941Z,45.48
2022-08-06T09:42:07.424Z,45.47
2022-08-06T09:42:18.728Z,45.47
2022-08-06T09:42:30.612Z,45.66
2022-08-06T09:42:41.853Z,45.56
2022-08-06T09:42:52.212Z,45.57
2022-08-06T09:43:03.038Z,45.59
2022-08-06T09:43:14.575Z,45.49
2022-08-06T09:43:24.812Z,45.44
2022-08-06T09:44:03.339Z,45.65
2022-08-06T09:44:03.560Z,45.63
2022-08-06T09:44:04.218Z,45.65
2022-08-06T09:44:37.195Z,45.67
2022-08-06T09:44:37.707Z,45.66
2022-08-06T09:44:41.552Z,45.66
2022-08-06T09:44:47.645Z,45.67
2022-08-06T09:44:59.026Z,45.56
2022-08-06T09:45:16.363Z,45.49
2022-08-06T09:45:42.755Z,45.64
2022-08-06T09:45:42.888Z,45.61
2022-08-06T09:45:46.643Z,45.66
2022-08-06T09:46:00.162Z,45.55
2022-08-06T09:46:09.382Z,45.59
2022-08-06T09:46:20.888Z,45.52
2022-08-06T09:46:33.208Z,45.48
2022-08-06T09:46:44.011Z,45.42
2022-08-06T09:46:55.360Z,45.67
2022-08-06T09:47:06.730Z,45.53
2022-08-06T09:47:22.296Z,45.50
2022-08-06T09:47:33.342Z,45.56
2022-08-06T09:47:40.557Z,45.59
2022-08-06T09:47:58.940Z,45.54
2022-08-06T09:48:03.762Z,45.69
2022-08-06T09:48:16.985Z,45.56
2022-08-06T09:48:26.931Z,45.68
2022-08-06T09:48:39.057Z,45.49
2022-08-06T09:49:19.567Z,45.48
2022-08-06T09:49:47.419Z,45.62
2022-08-06T09:49:48.352Z,45.65
2022-08-06T09:49:49.143Z,45.66
2022-08-06T09:49:50.574Z,45.63
2022-08-06T09:50:00.407Z,45.64
2022-08-06T09:50:01.255Z,45.64
2022-08-06T09:50:12.560Z,45.56
2022-08-06T09:50:24.493Z,45.68
2022-08-06T09:50:36.569Z,45.58
2022-08-06T09:50:48.199Z,45.54
2022-08-06T09:51:00.276Z,45.54
2022-08-06T09:51:14.597Z,45.48
2022-08-06T09:51:26.597Z,45.52
2022-08-06T09:51:50.630Z,45.64
2022-08-06T09:51:51.415Z,45.68
2022-08-06T09:51:58.573Z,45.60
2022-08-06T09:52:09.821Z,45.54
2022-08-06T09:52:22.140Z,45.54
2022-08-06T09:52:31.452Z,45.58
2022-08-06T09:52:42.955Z,45.48
2022-08-06T09:52:54.172Z,45.48
2022-08-06T09:53:06.035Z,45.46
2022-08-06T09:53:18.996Z,45.59
2022-08-06T09:53:28.081Z,45.56
2022-08-06T09:53:50.869Z,45.62
2022-08-06T09:54:05.767Z,45.64
2022-08-06T09:54:21.889Z,45.64
2022-08-06T09:54:24.446Z,45.60
2022-08-06T09:54:27.739Z,45.62
2022-08-06T09:54:38.985Z,45.52
2022-08-06T09:54:52.908Z,45.50
2022-08-06T09:55:03.693Z,45.50
2022-08-06T09:55:17.030Z,45.76
2022-08-06T09:55:24.350Z,45.72
2022-08-06T09:55:38.252Z,45.60
2022-08-06T09:55:46.361Z,45.62
2022-08-06T09:55:58.354Z,45.51
2022-08-06T09:56:09.884Z,45.52
2022-08-06T09:56:21.112Z,45.49
2022-08-06T09:56:31.141Z,45.53
2022-08-06T09:56:44.964Z,45.48
2022-08-06T09:56:54.109Z,45.49
2022-08-06T09:57:04.224Z,45.53
2022-08-06T09:57:15.729Z,45.45
2022-08-06T09:57:35.002Z,45.47
2022-08-06T09:57:39.087Z,45.63
2022-08-06T09:57:50.368Z,45.53
2022-08-06T09:58:01.854Z,45.45
2022-08-06T09:58:13.364Z,45.46
2022-08-06T09:58:24.852Z,45.45
2022-08-06T09:58:36.077Z,45.45
2022-08-06T09:58:47.571Z,45.44
2022-08-06T09:58:59.786Z,45.41
2022-08-06T09:59:10.318Z,45.39
2022-08-06T09:59:21.841Z,45.41
2022-08-06T09:59:33.460Z,45.44
2022-08-06T09:59:45.063Z,45.45
2022-08-06T09:59:56.987Z,45.57
2022-08-06T10:00:14.761Z,45.48
2022-08-06T10:00:20.151Z,45.64
2022-08-06T10:00:33.171Z,45.61
2022-08-06T10:00:42.350Z,45.46
2022-08-06T10:00:53.392Z,45.63
2022-08-06T10:01:04.658Z,45.50
2022-08-06T10:01:22.380Z,45.44
2022-08-06T10:01:28.341Z,45.57
2022-08-06T10:01:40.320Z,45.53
2022-08-06T10:01:50.543Z,45.50
2022-08-06T10:02:01.993Z,45.45
2022-08-06T10:02:13.253Z,45.44
2022-08-06T10:02:32.265Z,45.44
2022-08-06T10:02:37.009Z,45.55
2022-08-06T10:02:51.747Z,45.48
2022-08-06T10:02:58.974Z,45.58
2022-08-06T10:04:02.509Z,45.61
2022-08-06T10:04:03.442Z,45.59
2022-08-06T10:04:03.794Z,45.61
2022-08-06T10:04:03.839Z,45.61
2022-08-06T10:04:03.986Z,45.57
2022-08-06T10:04:14.703Z,45.60
2022-08-06T10:04:36.649Z,45.61
2022-08-06T10:04:36.649Z,45.62
2022-08-06T10:04:46.199Z,45.56
2022-08-06T10:04:56.879Z,45.54
2022-08-06T10:05:06.930Z,45.54
2022-08-06T10:05:19.905Z,45.46
2022-08-06T10:05:29.864Z,45.45
2022-08-06T10:05:50.217Z,45.46
2022-08-06T10:05:53.392Z,45.58
2022-08-06T10:06:04.279Z,45.47
2022-08-06T10:06:15.765Z,45.44
2022-08-06T10:06:26.999Z,45.43
2022-08-06T10:06:40.130Z,45.49
2022-08-06T10:06:47.170Z,45.56
2022-08-06T10:06:58.408Z,45.47
2022-08-06T10:07:10.867Z,45.48
2022-08-06T10:07:22.082Z,45.44
2022-08-06T10:07:40.367Z,45.45
2022-08-06T10:07:45.521Z,45.56
2022-08-06T10:07:55.992Z,45.45
2022-08-06T10:08:08.099Z,45.43
2022-08-06T10:08:22.733Z,45.38
2022-08-06T10:08:29.810Z,45.46
2022-08-06T10:08:41.884Z,45.41
2022-08-06T10:08:53.443Z,45.43
2022-08-06T10:09:05.148Z,45.43
2022-08-06T10:09:41.129Z,45.54
2022-08-06T10:09:41.507Z,45.56
2022-08-06T10:09:44.322Z,45.59
2022-08-06T10:09:52.077Z,45.54
2022-08-06T10:10:03.347Z,45.48
2022-08-06T10:10:33.176Z,45.42
2022-08-06T10:10:34.207Z,45.55
2022-08-06T10:10:40.924Z,45.58
2022-08-06T10:10:50.660Z,45.58
2022-08-06T10:11:07.005Z,45.50
2022-08-06T10:11:13.812Z,45.64
2022-08-06T10:11:25.066Z,45.50
2022-08-06T10:11:41.740Z,45.51
2022-08-06T10:11:50.131Z,45.63
2022-08-06T10:11:59.402Z,45.55
2022-08-06T10:12:10.992Z,45.44
2022-08-06T10:12:26.074Z,45.40
2022-08-06T10:12:33.356Z,45.62
2022-08-06T10:12:44.594Z,45.52
2022-08-06T10:12:56.691Z,45.43
2022-08-06T10:13:08.026Z,45.46
2022-08-06T10:13:20.117Z,45.45